createdAt,value
2023-05-02T00:04:15.232Z,100.00
2023-05-02T00:09:18.488Z,100.00
2023-05-02T00:14:23.029Z,100.00
2023-05-02T00:19:26.201Z,100.00
2023-05-02T00:24:29.739Z,100.00
2023-05-02T00:29:34.482Z,100.00
2023-05-02T00:34:37.685Z,100.00
2023-05-02T00:39:40.883Z,100.00
2023-05-02T00:44:45.481Z,100.00
2023-05-02T00:49:48.802Z,100.00
2023-05-02T00:54:52.559Z,100.00
2023-05-02T00:59:58.311Z,100.00
2023-05-02T01:05:11.518Z,100.00
2023-05-02T01:10:23.706Z,100.00
2023-05-02T01:15:29.478Z,100.00
2023-05-02T01:20:38.569Z,100.00
2023-05-02T01:25:57.884Z,100.00
2023-05-02T01:31:04.523Z,100.00
2023-05-02T01:36:10.067Z,100.00
2023-05-02T01:41:14.167Z,100.00
2023-05-02T01:46:21.461Z,100.00
2023-05-02T01:51:29.828Z,100.00
2023-05-02T01:56:36.663Z,100.00
2023-05-02T02:01:43.630Z,100.00
2023-05-02T02:07:02.248Z,100.00
2023-05-02T02:12:08.365Z,100.00
2023-05-02T02:17:23.391Z,100.00
2023-05-02T02:22:29.477Z,100.00
2023-05-02T02:27:33.078Z,100.00
2023-05-02T02:32:38.671Z,100.00
2023-05-02T02:37:49.754Z,100.00
2023-05-02T02:43:03.075Z,100.00
2023-05-02T02:48:18.351Z,100.00
2023-05-02T02:53:28.872Z,100.00
2023-05-02T02:58:45.020Z,100.00
2023-05-02T03:03:50.645Z,100.00
2023-05-02T03:08:53.954Z,100.00
2023-05-02T03:14:04.029Z,100.00
2023-05-02T03:19:09.479Z,100.00
2023-05-02T03:24:12.775Z,100.00
2023-05-02T03:29:16.968Z,100.00
2023-05-02T03:34:22.281Z,100.00
2023-05-02T03:39:27.386Z,100.00
2023-05-02T03:44:30.884Z,100.00
2023-05-02T03:49:36.930Z,100.00
2023-05-02T03:54:41.539Z,100.00
2023-05-02T03:59:47.673Z,100.00
2023-05-02T04:05:02.254Z,100.00
2023-05-02T04:10:07.819Z,100.00
2023-05-02T04:15:16.900Z,100.00
2023-05-02T04:20:23.205Z,100.00
2023-05-02T04:25:29.980Z,100.00
2023-05-02T04:30:37.727Z,100.00
2023-05-02T04:35:47.692Z,100.00
2023-05-02T04:40:53.458Z,100.00
2023-05-02T04:46:03.736Z,100.00
2023-05-02T04:51:14.861Z,100.00
2023-05-02T04:56:21.842Z,100.00
2023-05-02T05:01:27.936Z,100.00
2023-05-02T05:06:33.617Z,100.00
2023-05-02T05:11:38.696Z,100.00
2023-05-02T05:16:43.592Z,100.00
2023-05-02T05:21:49.489Z,100.00
2023-05-02T05:26:55.102Z,100.00
2023-05-02T05:31:59.337Z,100.00
2023-05-02T05:37:05.084Z,100.00
2023-05-02T05:42:09.824Z,100.00
2023-05-02T05:47:20.063Z,100.00
2023-05-02T05:52:25.174Z,100.00
2023-05-02T05:57:30.558Z,100.00
2023-05-02T06:02:34.244Z,100.00
2023-05-02T06:07:39.123Z,100.00
2023-05-02T06:12:42.824Z,100.00
2023-05-02T06:17:47.786Z,100.00
2023-05-02T06:22:53.163Z,100.00
2023-05-02T06:27:56.465Z,100.00
2023-05-02T06:33:00.033Z,100.00
2023-05-02T06:38:04.861Z,100.00
2023-05-02T06:43:08.161Z,100.00
2023-05-02T06:48:12.092Z,100.00
2023-05-02T06:53:16.878Z,100.00
2023-05-02T06:58:20.119Z,100.00
2023-05-02T07:03:23.428Z,100.00
2023-05-02T07:08:30.015Z,100.00
2023-05-02T07:13:33.234Z,100.00
2023-05-02T07:18:36.560Z,99.95
2023-05-02T07:23:41.161Z,98.86
2023-05-02T07:28:44.324Z,99.21
2023-05-02T07:33:47.558Z,98.39
2023-05-02T07:38:52.498Z,98.02
2023-05-02T07:43:55.918Z,95.80
2023-05-02T07:48:59.114Z,95.28
2023-05-02T07:54:03.971Z,95.51
2023-05-02T07:59:07.480Z,97.45
2023-05-02T08:04:11.709Z,98.66
2023-05-02T08:09:16.523Z,99.21
2023-05-02T08:14:19.873Z,97.42
2023-05-02T08:19:23.144Z,94.22
2023-05-02T08:24:28.070Z,91.10
2023-05-02T08:29:31.618Z,87.69
2023-05-02T08:34:34.876Z,93.72
2023-05-02T08:39:39.579Z,95.10
2023-05-02T08:44:42.838Z,96.00
2023-05-02T08:49:47.563Z,92.61
2023-05-02T08:54:53.100Z,87.34
2023-05-02T08:59:56.220Z,90.39
2023-05-02T09:05:07.559Z,88.54
2023-05-02T09:10:13.081Z,91.28
2023-05-02T09:15:20.050Z,87.00
2023-05-02T09:20:24.247Z,83.42
2023-05-02T09:25:38.440Z,85.61
2023-05-02T09:30:41.968Z,80.44
2023-05-02T09:35:54.949Z,77.60
2023-05-02T09:41:03.473Z,73.79
2023-05-02T09:46:08.093Z,77.10
2023-05-02T09:51:18.724Z,75.13
2023-05-02T09:56:24.107Z,71.32
2023-05-02T10:01:28.992Z,63.06
2023-05-02T10:06:33.799Z,60.97
2023-05-02T10:11:40.420Z,60.21
2023-05-02T10:16:59.511Z,65.19
2023-05-02T10:22:03.416Z,74.83
2023-05-02T10:27:08.824Z,82.57
2023-05-02T10:32:12.714Z,90.24
2023-05-02T10:37:18.565Z,98.12
2023-05-02T10:42:23.810Z,96.72
2023-05-02T10:47:28.329Z,98.41
2023-05-02T10:52:34.392Z,100.00
2023-05-02T10:58:17.708Z,98.47
2023-05-02T11:03:57.788Z,94.47
2023-05-02T11:09:33.278Z,89.37
2023-05-02T11:14:48.684Z,76.60
2023-05-02T11:20:28.126Z,72.19
2023-05-02T11:25:36.797Z,67.40
2023-05-02T11:30:43.925Z,72.38
2023-05-02T11:35:51.146Z,72.74
2023-05-02T11:40:59.678Z,76.02
2023-05-02T11:46:06.042Z,72.88
2023-05-02T11:51:09.667Z,61.14
2023-05-02T11:56:13.068Z,58.33
2023-05-02T12:01:17.957Z,56.50
2023-05-02T12:06:21.360Z,57.87
2023-05-02T12:11:25.167Z,59.05
2023-05-02T12:16:30.126Z,77.38
2023-05-02T12:21:34.074Z,83.19
2023-05-02T12:26:37.243Z,83.42
2023-05-02T12:31:52.363Z,90.45
2023-05-02T12:36:55.989Z,93.14
2023-05-02T12:41:59.284Z,96.81
2023-05-02T12:47:04.228Z,97.29
2023-05-02T12:52:07.639Z,98.98
2023-05-02T12:57:11.588Z,97.00
2023-05-02T13:02:16.426Z,99.66
2023-05-02T13:07:19.680Z,95.79
2023-05-02T13:12:22.934Z,97.18
2023-05-02T13:17:27.725Z,93.45
2023-05-02T13:22:31.083Z,88.96
2023-05-02T13:27:34.650Z,94.70
2023-05-02T13:32:40.306Z,96.08
2023-05-02T13:37:43.726Z,93.87
2023-05-02T13:42:46.964Z,89.91
2023-05-02T13:47:51.797Z,91.13
2023-05-02T13:52:55.075Z,94.82
2023-05-02T13:57:58.469Z,94.50
2023-05-02T14:03:03.387Z,93.48
2023-05-02T14:08:06.741Z,93.15
2023-05-02T14:13:10.398Z,94.03
2023-05-02T14:18:16.692Z,97.25
2023-05-02T14:23:20.046Z,98.62
2023-05-02T14:28:23.591Z,96.61
2023-05-02T14:33:28.464Z,97.83
2023-05-02T14:38:31.759Z,96.98
2023-05-02T14:43:35.012Z,95.92
2023-05-02T14:48:39.824Z,96.41
2023-05-02T14:53:43.262Z,96.62
2023-05-02T14:58:46.815Z,97.17
2023-05-02T15:04:05.761Z,93.91
2023-05-02T15:09:11.092Z,94.21
2023-05-02T15:14:14.552Z,93.65
2023-05-02T15:19:19.312Z,95.15
2023-05-02T15:24:22.937Z,94.87
2023-05-02T15:29:26.455Z,94.46
2023-05-02T15:34:31.290Z,98.35
2023-05-02T15:39:34.995Z,100.00
2023-05-02T15:44:38.608Z,100.00
2023-05-02T15:49:43.228Z,100.00
2023-05-02T15:54:46.408Z,100.00
2023-05-02T15:59:49.988Z,100.00
2023-05-02T16:04:55.050Z,100.00
2023-05-02T16:09:58.247Z,100.00
2023-05-02T16:15:03.676Z,100.00
2023-05-02T16:20:11.348Z,100.00
2023-05-02T16:25:17.433Z,100.00
2023-05-02T16:30:20.805Z,100.00
2023-05-02T16:35:28.034Z,100.00
2023-05-02T16:40:32.553Z,100.00
2023-05-02T16:45:36.222Z,100.00
2023-05-02T16:50:41.299Z,100.00
2023-05-02T16:55:44.779Z,100.00
2023-05-02T17:00:48.147Z,100.00
2023-05-02T17:05:52.748Z,100.00
2023-05-02T17:10:56.492Z,100.00
2023-05-02T17:16:01.342Z,100.00
2023-05-02T17:21:07.789Z,100.00
2023-05-02T17:26:15.667Z,100.00
2023-05-02T17:31:19.084Z,100.00
2023-05-02T17:36:23.780Z,100.00
2023-05-02T17:41:27.301Z,100.00
2023-05-02T17:46:30.964Z,100.00
2023-05-02T17:51:35.713Z,100.00
2023-05-02T17:56:38.942Z,100.00
2023-05-02T18:01:42.441Z,100.00
2023-05-02T18:06:47.898Z,100.00
2023-05-02T18:11:53.611Z,100.00
2023-05-02T18:16:57.734Z,100.00
2023-05-02T18:22:03.708Z,100.00
2023-05-02T18:27:07.205Z,100.00
2023-05-02T18:32:10.818Z,100.00
2023-05-02T18:37:15.980Z,100.00
2023-05-02T18:42:19.700Z,100.00
2023-05-02T18:47:24.555Z,100.00
2023-05-02T18:52:30.851Z,100.00
2023-05-02T18:57:34.740Z,100.00
2023-05-02T19:02:38.150Z,100.00
2023-05-02T19:07:42.908Z,100.00
2023-05-02T19:12:47.822Z,100.00
2023-05-02T19:17:51.247Z,100.00
2023-05-02T19:23:07.176Z,100.00
2023-05-02T19:28:20.559Z,100.00
2023-05-02T19:33:24.868Z,100.00
2023-05-02T19:38:30.110Z,100.00
2023-05-02T19:43:37.156Z,100.00
2023-05-02T19:48:42.031Z,100.00
2023-05-02T19:53:49.041Z,100.00
2023-05-02T19:58:52.939Z,99.38
2023-05-02T20:04:00.395Z,99.38
2023-05-02T20:09:05.438Z,99.35
2023-05-02T20:14:08.940Z,96.34
2023-05-02T20:19:13.094Z,97.14
2023-05-02T20:24:18.190Z,96.60
2023-05-02T20:29:21.888Z,97.58
2023-05-02T20:34:25.962Z,94.73
2023-05-02T20:39:32.427Z,93.16
2023-05-02T20:44:36.659Z,94.11
2023-05-02T20:49:39.926Z,92.40
2023-05-02T20:54:45.817Z,92.24
2023-05-02T20:59:48.950Z,92.54
2023-05-02T21:04:52.410Z,90.67
2023-05-02T21:09:57.308Z,92.74
2023-05-02T21:15:00.453Z,96.90
2023-05-02T21:20:04.990Z,100.00
2023-05-02T21:25:13.264Z,100.00
2023-05-02T21:30:16.885Z,100.00
2023-05-02T21:35:20.219Z,100.00
2023-05-02T21:40:24.907Z,100.00
2023-05-02T21:45:29.859Z,100.00
2023-05-02T21:50:33.967Z,100.00
2023-05-02T21:55:39.557Z,100.00
2023-05-02T22:00:43.388Z,100.00
2023-05-02T22:05:49.953Z,100.00
2023-05-02T22:10:54.675Z,100.00
2023-05-02T22:15:57.737Z,100.00
2023-05-02T22:21:01.705Z,100.00
2023-05-02T22:26:06.796Z,100.00
2023-05-02T22:31:10.244Z,100.00
2023-05-02T22:36:13.560Z,98.12
2023-05-02T22:41:18.184Z,100.00
2023-05-02T22:46:21.430Z,100.00
2023-05-02T22:51:25.580Z,99.19
2023-05-02T22:56:30.305Z,97.74
2023-05-02T23:01:33.666Z,100.00
2023-05-02T23:06:37.163Z,98.16
2023-05-02T23:11:41.928Z,99.27
2023-05-02T23:16:45.074Z,100.00
2023-05-02T23:22:04.116Z,100.00
2023-05-02T23:27:08.788Z,100.00
2023-05-02T23:32:12.237Z,98.26
2023-05-02T23:37:15.483Z,100.00
2023-05-02T23:42:20.169Z,100.00
2023-05-02T23:47:25.938Z,100.00
2023-05-02T23:52:29.445Z,100.00
2023-05-02T23:57:34.139Z,100.00
